createdAt,value
2023-04-21T00:00:06.445Z,170.2
2023-04-21T00:05:01.614Z,139.5
2023-04-21T00:10:01.361Z,114.3
2023-04-21T00:15:01.422Z,91.3
2023-04-21T00:20:01.393Z,93.3
2023-04-21T00:25:01.352Z,95.8
2023-04-21T00:30:01.377Z,98.9
2023-04-21T00:35:01.476Z,91.1
2023-04-21T00:40:01.432Z,90.4
2023-04-21T00:50:01.501Z,82.8
2023-04-21T00:55:02.480Z,74.8
2023-04-21T01:00:01.398Z,59.9
2023-04-21T01:05:01.922Z,55.0
2023-04-21T01:10:01.381Z,45.2
2023-04-21T01:15:01.423Z,39.6
2023-04-21T01:20:01.452Z,38.0
2023-04-21T01:25:01.397Z,42.0
2023-04-21T01:30:02.364Z,37.5
2023-04-21T01:35:01.451Z,35.2
2023-04-21T01:45:01.587Z,32.2
2023-04-21T01:50:01.400Z,22.2
2023-04-21T01:55:01.483Z,13.8
2023-04-21T02:00:01.351Z,8.3
2023-04-21T02:05:01.941Z,4.6
2023-04-21T02:10:01.468Z,1.7
2023-04-21T02:15:01.497Z,4.2
2023-04-21T02:20:04.297Z,6.2
2023-04-21T02:25:06.485Z,8.0
2023-04-21T02:30:01.380Z,8.3
2023-04-21T02:35:01.401Z,9.2
2023-04-21T02:40:01.370Z,7.3
2023-04-21T02:45:01.520Z,5.4
2023-04-21T02:55:01.454Z,3.7
2023-04-21T03:00:06.409Z,6.2
2023-04-21T03:05:01.448Z,6.9
2023-04-21T03:10:01.330Z,8.1
2023-04-21T03:15:01.383Z,8.9
2023-04-21T03:20:01.355Z,9.0
2023-04-21T03:25:01.418Z,5.2
2023-04-21T03:30:01.351Z,3.4
2023-04-21T03:40:01.498Z,1.6
2023-04-21T04:05:06.482Z,3.3
2023-04-21T04:10:01.310Z,3.8
2023-04-21T04:15:01.492Z,4.2
2023-04-21T04:20:01.354Z,4.5
2023-04-21T04:25:01.412Z,2.1
2023-04-21T04:30:01.347Z,1.2
2023-04-21T04:35:01.394Z,1.0
2023-04-21T04:40:06.345Z,0.7
2023-04-21T04:50:01.516Z,9.4
2023-04-21T04:55:01.454Z,20.0
2023-04-21T05:00:01.469Z,30.4
2023-04-21T05:05:01.601Z,39.4
2023-04-21T05:10:01.338Z,49.1
2023-04-21T05:15:01.456Z,48.8
2023-04-21T05:20:06.352Z,47.8
2023-04-21T05:25:06.392Z,46.1
2023-04-21T05:30:01.371Z,42.2
2023-04-21T05:35:01.484Z,34.7
2023-04-21T05:40:01.378Z,29.0
2023-04-21T05:45:01.506Z,20.3
2023-04-21T05:50:01.401Z,14.9
2023-04-21T05:55:01.374Z,12.9
2023-04-21T06:05:02.364Z,16.8
2023-04-21T06:10:01.362Z,21.7
2023-04-21T06:15:01.440Z,26.5
2023-04-21T06:20:01.286Z,26.0
2023-04-21T06:25:01.521Z,27.3
2023-04-21T06:30:01.338Z,26.0
2023-04-21T06:35:01.434Z,23.7
2023-04-21T06:40:01.326Z,56.5
2023-04-21T06:50:01.503Z,96.2
2023-04-21T06:55:01.488Z,122.3
2023-04-21T07:00:01.391Z,160.0
2023-04-21T07:05:01.537Z,155.7
2023-04-21T07:10:01.493Z,161.4
2023-04-21T07:15:01.528Z,159.6
2023-04-21T07:20:01.409Z,183.5
2023-04-21T07:25:01.467Z,194.1
2023-04-21T07:30:01.445Z,247.1
2023-04-21T07:40:01.713Z,241.8
2023-04-21T07:45:01.416Z,247.0
2023-04-21T07:50:01.360Z,210.3
2023-04-21T07:55:01.480Z,207.3
2023-04-21T08:00:06.339Z,188.0
2023-04-21T08:05:02.659Z,180.6
2023-04-21T08:10:01.372Z,173.0
2023-04-21T08:15:02.504Z,171.9
2023-04-21T08:20:06.353Z,138.5
2023-04-21T08:30:01.446Z,120.8
2023-04-21T08:35:02.399Z,106.0
2023-04-21T08:40:01.294Z,86.6
2023-04-21T08:45:01.396Z,90.7
2023-04-21T08:50:01.456Z,93.9
2023-04-21T08:55:01.621Z,94.0
2023-04-21T09:00:01.599Z,104.7
2023-04-21T09:05:02.426Z,104.6
2023-04-21T09:10:01.764Z,104.0
2023-04-21T09:15:01.633Z,103.0
2023-04-21T09:20:01.364Z,105.4
2023-04-21T09:35:01.884Z,93.4
2023-04-21T09:40:05.802Z,96.0
2023-04-21T09:50:01.849Z,95.0
2023-04-21T09:55:01.927Z,96.0
2023-04-21T10:00:01.945Z,98.2
2023-04-21T10:05:02.342Z,98.5
2023-04-21T10:10:01.626Z,102.7
2023-04-21T10:15:01.903Z,101.4
2023-04-21T10:20:01.784Z,102.3
2023-04-21T10:25:01.734Z,101.8
2023-04-21T10:30:01.528Z,101.9
2023-04-21T10:45:01.507Z,107.2
2023-04-21T10:50:01.360Z,104.1
2023-04-21T10:55:01.494Z,104.8
2023-04-21T11:00:01.301Z,105.1
2023-04-21T11:05:02.035Z,104.9
2023-04-21T11:10:01.357Z,102.9
2023-04-21T11:20:06.593Z,103.4
2023-04-21T11:25:01.511Z,104.7
2023-04-21T11:30:01.342Z,105.4
2023-04-21T11:35:01.474Z,108.3
2023-04-21T11:40:01.469Z,109.6
2023-04-21T11:45:01.433Z,112.6
2023-04-21T11:50:01.364Z,115.5
2023-04-21T11:55:01.526Z,119.3
2023-04-21T12:00:01.401Z,124.6
2023-04-21T12:05:01.978Z,129.3
2023-04-21T12:10:01.668Z,133.2
2023-04-21T12:15:01.494Z,134.1
2023-04-21T12:20:02.432Z,135.0
2023-04-21T12:25:01.424Z,131.0
2023-04-21T12:35:01.468Z,131.9
2023-04-21T12:40:01.396Z,131.4
2023-04-21T12:45:01.507Z,133.2
2023-04-21T12:50:01.486Z,137.9
2023-04-21T12:55:11.497Z,143.7
2023-04-21T13:00:06.381Z,148.4
2023-04-21T13:05:01.428Z,153.5
2023-04-21T13:10:01.404Z,156.6
2023-04-21T13:15:01.551Z,161.9
2023-04-21T13:20:01.824Z,163.2
2023-04-21T13:30:01.374Z,157.6
2023-04-21T13:35:06.497Z,157.7
2023-04-21T13:40:01.365Z,153.2
2023-04-21T13:50:01.373Z,148.3
2023-04-21T13:55:02.389Z,147.4
2023-04-21T14:00:01.388Z,149.0
2023-04-21T14:05:02.227Z,154.1
2023-04-21T14:10:01.355Z,160.6
2023-04-21T14:15:01.497Z,166.0
2023-04-21T14:20:01.365Z,172.2
2023-04-21T14:25:02.658Z,174.2
2023-04-21T14:35:01.551Z,173.7
2023-04-21T14:40:01.625Z,172.6
2023-04-21T14:45:01.554Z,173.9
2023-04-21T14:50:01.591Z,175.7
2023-04-21T14:55:01.649Z,176.8
2023-04-21T15:00:01.436Z,177.2
2023-04-21T15:05:01.523Z,183.6
2023-04-21T15:10:01.570Z,185.7
2023-04-21T15:15:01.513Z,187.6
2023-04-21T15:20:02.446Z,190.5
2023-04-21T15:25:01.428Z,191.1
2023-04-21T15:35:01.519Z,180.8
2023-04-21T15:40:01.370Z,175.5
2023-04-21T15:50:01.351Z,171.6
2023-04-21T15:55:01.442Z,178.4
2023-04-21T16:05:02.372Z,197.1
2023-04-21T16:10:01.423Z,202.3
2023-04-21T16:20:01.444Z,217.4
2023-04-21T16:25:01.860Z,226.4
2023-04-21T16:35:06.727Z,214.4
2023-04-21T16:40:01.587Z,203.5
2023-04-21T16:45:01.489Z,193.2
2023-04-21T16:50:01.506Z,182.0
2023-04-21T16:55:01.525Z,162.8
2023-04-21T17:10:01.429Z,172.4
2023-04-21T17:25:02.371Z,197.5
2023-04-21T17:30:01.353Z,213.5
2023-04-21T17:35:01.494Z,228.6
2023-04-21T17:40:03.425Z,243.4
2023-04-21T17:45:01.503Z,237.0
2023-04-21T17:50:01.346Z,235.9
2023-04-21T17:55:01.578Z,239.5
2023-04-21T18:00:01.415Z,237.6
2023-04-21T18:10:01.506Z,225.1
2023-04-21T18:20:01.788Z,204.8
2023-04-21T18:25:01.500Z,176.1
2023-04-21T18:30:01.358Z,126.4
2023-04-21T18:45:04.926Z,90.0
2023-04-21T18:50:01.373Z,72.3
2023-04-21T18:55:01.428Z,56.8
2023-04-21T19:05:01.409Z,61.6
2023-04-21T19:10:01.334Z,42.2
2023-04-21T19:15:02.528Z,33.1
2023-04-21T19:20:01.453Z,26.9
2023-04-21T19:25:01.537Z,17.0
2023-04-21T19:30:01.352Z,13.2
2023-04-21T19:35:01.502Z,8.7
2023-04-21T19:40:01.345Z,4.3
2023-04-21T19:45:01.384Z,8.3
2023-04-21T19:50:01.437Z,19.1
2023-04-21T20:00:01.434Z,25.9
2023-04-21T20:05:01.490Z,31.0
2023-04-21T20:10:01.357Z,35.0
2023-04-21T20:15:06.462Z,33.5
2023-04-21T20:20:01.514Z,29.1
2023-04-21T20:25:01.469Z,21.5
2023-04-21T20:30:01.347Z,28.4
2023-04-21T20:40:01.503Z,37.4
2023-04-21T20:45:01.517Z,46.0
2023-04-21T20:50:06.415Z,51.5
2023-04-21T20:55:02.517Z,67.0
2023-04-21T21:00:06.379Z,69.9
2023-04-21T21:05:01.487Z,74.0
2023-04-21T21:10:02.381Z,64.5
2023-04-21T21:15:01.408Z,72.3
2023-04-21T21:20:01.899Z,72.6
2023-04-21T21:25:01.415Z,75.1
2023-04-21T21:30:01.363Z,73.8
2023-04-21T21:35:01.452Z,89.0
2023-04-21T21:40:01.433Z,92.1
2023-04-21T21:45:01.585Z,103.1
2023-04-21T21:50:01.341Z,111.8
2023-04-21T21:55:01.415Z,101.6
2023-04-21T22:00:01.370Z,112.5
2023-04-21T22:05:01.528Z,118.9
2023-04-21T22:10:01.367Z,122.5
2023-04-21T22:20:01.732Z,125.2
2023-04-21T22:25:01.450Z,144.7
2023-04-21T22:30:01.349Z,135.8
2023-04-21T22:35:01.425Z,128.1
2023-04-21T22:40:01.379Z,116.1
2023-04-21T22:45:01.473Z,105.6
2023-04-21T22:50:01.450Z,99.1
2023-04-21T22:55:01.449Z,96.0
2023-04-21T23:00:02.453Z,92.0
2023-04-21T23:05:01.584Z,90.7
2023-04-21T23:15:01.488Z,89.6
2023-04-21T23:20:02.427Z,97.2
2023-04-21T23:25:01.466Z,93.1
2023-04-21T23:30:01.367Z,88.8
2023-04-21T23:35:01.434Z,85.3
2023-04-21T23:40:06.516Z,81.1
2023-04-21T23:45:01.508Z,68.8
2023-04-21T23:50:01.462Z,115.2
2023-04-21T23:55:01.510Z,125.0
